sensor_id;sensor_type;location;lat;lon;timestamp;pressure;altitude;pressure_sealevel;temperature;humidity
56825;BME280;42705;50.326;18.772;2022-12-29T00:00:13;98499.09;;;2.01;64.51
56825;BME280;42705;50.326;18.772;2022-12-29T00:05:37;98503.18;;;2.05;64.50
56825;BME280;42705;50.326;18.772;2022-12-29T00:10:57;98499.57;;;2.08;64.40
56825;BME280;42705;50.326;18.772;2022-12-29T00:16:19;98490.38;;;2.11;64.40
56825;BME280;42705;50.326;18.772;2022-12-29T00:21:40;98497.49;;;2.14;64.38
56825;BME280;42705;50.326;18.772;2022-12-29T00:27:19;98485.23;;;2.18;64.32
56825;BME280;42705;50.326;18.772;2022-12-29T00:33:00;98481.81;;;2.17;64.24
56825;BME280;42705;50.326;18.772;2022-12-29T00:38:43;98468.81;;;2.19;64.26
56825;BME280;42705;50.326;18.772;2022-12-29T00:44:27;98459.04;;;2.24;64.31
56825;BME280;42705;50.326;18.772;2022-12-29T00:49:48;98465.02;;;2.25;64.27
56825;BME280;42705;50.326;18.772;2022-12-29T00:55:09;98459.30;;;2.27;64.18
56825;BME280;42705;50.326;18.772;2022-12-29T01:00:30;98456.03;;;2.32;64.05
56825;BME280;42705;50.326;18.772;2022-12-29T01:05:51;98444.77;;;2.33;64.01
56825;BME280;42705;50.326;18.772;2022-12-29T01:11:12;98445.69;;;2.32;64.00
56825;BME280;42705;50.326;18.772;2022-12-29T01:16:34;98448.52;;;2.27;63.97
56825;BME280;42705;50.326;18.772;2022-12-29T01:21:57;98461.45;;;2.27;63.94
56825;BME280;42705;50.326;18.772;2022-12-29T01:27:18;98470.98;;;2.34;63.96
56825;BME280;42705;50.326;18.772;2022-12-29T01:32:39;98472.55;;;2.37;63.87
56825;BME280;42705;50.326;18.772;2022-12-29T01:38:00;98485.84;;;2.38;63.83
56825;BME280;42705;50.326;18.772;2022-12-29T01:43:21;98474.95;;;2.40;63.85
56825;BME280;42705;50.326;18.772;2022-12-29T01:48:44;98480.25;;;2.45;63.80
56825;BME280;42705;50.326;18.772;2022-12-29T01:54:13;98479.33;;;2.46;63.75
56825;BME280;42705;50.326;18.772;2022-12-29T01:59:43;98453.02;;;2.47;63.75
56825;BME280;42705;50.326;18.772;2022-12-29T02:05:29;98437.22;;;2.52;63.78
56825;BME280;42705;50.326;18.772;2022-12-29T02:10:56;98415.27;;;2.66;63.75
56825;BME280;42705;50.326;18.772;2022-12-29T02:16:30;98413.31;;;2.77;63.60
56825;BME280;42705;50.326;18.772;2022-12-29T02:28:12;98405.92;;;2.78;63.21
56825;BME280;42705;50.326;18.772;2022-12-29T02:34:00;98414.34;;;2.82;63.13
56825;BME280;42705;50.326;18.772;2022-12-29T02:39:26;98417.22;;;2.92;62.83
56825;BME280;42705;50.326;18.772;2022-12-29T02:45:20;98420.98;;;3.00;62.44
56825;BME280;42705;50.326;18.772;2022-12-29T02:51:03;98412.39;;;3.07;62.29
56825;BME280;42705;50.326;18.772;2022-12-29T02:56:27;98418.68;;;3.10;62.09
56825;BME280;42705;50.326;18.772;2022-12-29T03:01:55;98419.34;;;3.14;61.95
56825;BME280;42705;50.326;18.772;2022-12-29T03:13:47;98397.03;;;3.18;61.84
56825;BME280;42705;50.326;18.772;2022-12-29T03:19:47;98387.33;;;3.22;61.62
56825;BME280;42705;50.326;18.772;2022-12-29T03:25:13;98386.49;;;3.29;61.46
56825;BME280;42705;50.326;18.772;2022-12-29T03:30:36;98389.62;;;3.34;61.30
56825;BME280;42705;50.326;18.772;2022-12-29T03:36:02;98376.73;;;3.40;61.05
56825;BME280;42705;50.326;18.772;2022-12-29T03:41:28;98375.72;;;3.42;60.87
56825;BME280;42705;50.326;18.772;2022-12-29T03:46:51;98367.14;;;3.42;61.03
56825;BME280;42705;50.326;18.772;2022-12-29T03:52:13;98357.62;;;3.35;61.03
56825;BME280;42705;50.326;18.772;2022-12-29T03:57:35;98356.97;;;3.31;61.15
56825;BME280;42705;50.326;18.772;2022-12-29T04:02:59;98357.28;;;3.27;61.18
56825;BME280;42705;50.326;18.772;2022-12-29T04:08:20;98346.91;;;3.19;61.33
56825;BME280;42705;50.326;18.772;2022-12-29T04:13:42;98352.47;;;3.13;61.46
56825;BME280;42705;50.326;18.772;2022-12-29T04:19:05;98340.58;;;3.11;61.62
56825;BME280;42705;50.326;18.772;2022-12-29T04:24:29;98343.24;;;3.09;61.68
56825;BME280;42705;50.326;18.772;2022-12-29T04:29:50;98322.53;;;3.09;61.86
56825;BME280;42705;50.326;18.772;2022-12-29T04:35:28;98328.08;;;3.10;61.89
56825;BME280;42705;50.326;18.772;2022-12-29T04:40:50;98326.78;;;3.10;61.97
56825;BME280;42705;50.326;18.772;2022-12-29T04:46:14;98324.67;;;3.10;62.11
56825;BME280;42705;50.326;18.772;2022-12-29T04:51:39;98321.70;;;3.16;62.20
56825;BME280;42705;50.326;18.772;2022-12-29T04:57:02;98316.22;;;3.28;62.30
56825;BME280;42705;50.326;18.772;2022-12-29T05:02:24;98298.34;;;3.30;62.27
56825;BME280;42705;50.326;18.772;2022-12-29T05:07:46;98305.20;;;3.24;62.25
56825;BME280;42705;50.326;18.772;2022-12-29T05:13:07;98320.09;;;3.21;62.31
56825;BME280;42705;50.326;18.772;2022-12-29T05:18:29;98323.80;;;3.16;62.39
56825;BME280;42705;50.326;18.772;2022-12-29T05:23:50;98325.02;;;3.18;62.56
56825;BME280;42705;50.326;18.772;2022-12-29T05:29:12;98317.42;;;3.22;62.57
56825;BME280;42705;50.326;18.772;2022-12-29T05:34:33;98307.34;;;3.25;62.62
56825;BME280;42705;50.326;18.772;2022-12-29T05:39:55;98288.49;;;3.23;62.61
56825;BME280;42705;50.326;18.772;2022-12-29T05:45:17;98304.20;;;3.27;62.65
56825;BME280;42705;50.326;18.772;2022-12-29T05:50:58;98310.55;;;3.28;62.66
56825;BME280;42705;50.326;18.772;2022-12-29T05:56:22;98306.42;;;3.26;62.63
56825;BME280;42705;50.326;18.772;2022-12-29T06:14:10;98282.27;;;3.25;62.87
56825;BME280;42705;50.326;18.772;2022-12-29T06:19:31;98269.44;;;3.24;62.96
56825;BME280;42705;50.326;18.772;2022-12-29T06:24:53;98277.57;;;3.25;62.95
56825;BME280;42705;50.326;18.772;2022-12-29T06:30:14;98273.13;;;3.19;62.97
56825;BME280;42705;50.326;18.772;2022-12-29T06:35:38;98274.90;;;3.19;63.14
56825;BME280;42705;50.326;18.772;2022-12-29T06:40:59;98277.38;;;3.21;63.25
56825;BME280;42705;50.326;18.772;2022-12-29T06:46:28;98272.64;;;3.27;63.34
56825;BME280;42705;50.326;18.772;2022-12-29T06:51:50;98275.48;;;3.37;63.31
56825;BME280;42705;50.326;18.772;2022-12-29T06:57:11;98260.91;;;3.49;63.29
56825;BME280;42705;50.326;18.772;2022-12-29T07:02:32;98260.88;;;3.56;63.25
56825;BME280;42705;50.326;18.772;2022-12-29T07:07:54;98281.67;;;3.62;63.17
56825;BME280;42705;50.326;18.772;2022-12-29T07:13:15;98283.86;;;3.68;63.13
56825;BME280;42705;50.326;18.772;2022-12-29T07:18:36;98286.97;;;3.73;63.05
56825;BME280;42705;50.326;18.772;2022-12-29T07:23:58;98287.70;;;3.75;62.94
56825;BME280;42705;50.326;18.772;2022-12-29T07:29:19;98300.37;;;3.80;62.82
56825;BME280;42705;50.326;18.772;2022-12-29T07:34:40;98307.00;;;3.84;62.79
56825;BME280;42705;50.326;18.772;2022-12-29T07:40:02;98304.50;;;3.83;62.77
56825;BME280;42705;50.326;18.772;2022-12-29T07:45:24;98289.52;;;3.81;62.71
56825;BME280;42705;50.326;18.772;2022-12-29T07:50:47;98289.16;;;3.80;62.73
56825;BME280;42705;50.326;18.772;2022-12-29T07:56:08;98275.75;;;3.80;62.64
56825;BME280;42705;50.326;18.772;2022-12-29T08:01:30;98285.92;;;3.76;62.56
56825;BME280;42705;50.326;18.772;2022-12-29T08:06:51;98292.23;;;3.79;62.65
56825;BME280;42705;50.326;18.772;2022-12-29T08:12:12;98282.18;;;3.87;62.72
56825;BME280;42705;50.326;18.772;2022-12-29T08:17:33;98287.47;;;3.99;62.68
56825;BME280;42705;50.326;18.772;2022-12-29T08:22:54;98277.17;;;4.04;62.50
56825;BME280;42705;50.326;18.772;2022-12-29T08:28:15;98275.39;;;4.05;62.40
56825;BME280;42705;50.326;18.772;2022-12-29T08:33:36;98297.34;;;4.07;62.33
56825;BME280;42705;50.326;18.772;2022-12-29T08:38:59;98305.20;;;4.05;62.26
56825;BME280;42705;50.326;18.772;2022-12-29T08:44:21;98308.52;;;4.07;62.35
56825;BME280;42705;50.326;18.772;2022-12-29T08:49:42;98312.63;;;4.17;62.35
56825;BME280;42705;50.326;18.772;2022-12-29T08:55:03;98312.52;;;4.31;62.26
56825;BME280;42705;50.326;18.772;2022-12-29T09:00:25;98304.50;;;4.42;62.01
56825;BME280;42705;50.326;18.772;2022-12-29T09:05:51;98299.76;;;4.54;61.90
56825;BME280;42705;50.326;18.772;2022-12-29T09:16:41;98330.24;;;4.76;61.44
56825;BME280;42705;50.326;18.772;2022-12-29T09:22:21;98323.88;;;4.93;61.36
56825;BME280;42705;50.326;18.772;2022-12-29T09:27:42;98298.65;;;5.14;61.02
56825;BME280;42705;50.326;18.772;2022-12-29T09:33:03;98301.34;;;5.31;60.70
56825;BME280;42705;50.326;18.772;2022-12-29T09:38:25;98297.00;;;5.43;60.31
56825;BME280;42705;50.326;18.772;2022-12-29T09:49:45;98292.49;;;5.64;60.00
56825;BME280;42705;50.326;18.772;2022-12-29T09:55:16;98301.63;;;5.75;59.60
56825;BME280;42705;50.326;18.772;2022-12-29T10:24:13;98269.48;;;6.18;58.25
56825;BME280;42705;50.326;18.772;2022-12-29T10:29:40;98261.94;;;6.26;58.37
56825;BME280;42705;50.326;18.772;2022-12-29T10:35:16;98260.86;;;6.29;58.11
56825;BME280;42705;50.326;18.772;2022-12-29T10:46:28;98238.38;;;6.39;58.50
56825;BME280;42705;50.326;18.772;2022-12-29T10:51:50;98244.44;;;6.45;58.50
56825;BME280;42705;50.326;18.772;2022-12-29T11:08:53;98238.49;;;6.72;58.22
56825;BME280;42705;50.326;18.772;2022-12-29T11:14:26;98232.44;;;6.71;57.75
56825;BME280;42705;50.326;18.772;2022-12-29T11:19:50;98237.05;;;6.73;57.70
56825;BME280;42705;50.326;18.772;2022-12-29T11:25:12;98251.38;;;6.73;57.42
56825;BME280;42705;50.326;18.772;2022-12-29T11:30:33;98236.23;;;6.73;57.98
56825;BME280;42705;50.326;18.772;2022-12-29T11:36:00;98239.16;;;6.79;57.61
56825;BME280;42705;50.326;18.772;2022-12-29T11:41:31;98250.42;;;6.86;57.78
56825;BME280;42705;50.326;18.772;2022-12-29T11:46:53;98216.29;;;6.94;57.24
56825;BME280;42705;50.326;18.772;2022-12-29T11:52:14;98235.56;;;7.09;57.16
56825;BME280;42705;50.326;18.772;2022-12-29T11:57:36;98237.19;;;7.16;57.43
56825;BME280;42705;50.326;18.772;2022-12-29T12:03:09;98238.82;;;7.28;57.35
56825;BME280;42705;50.326;18.772;2022-12-29T12:14:24;98230.34;;;7.42;57.06
56825;BME280;42705;50.326;18.772;2022-12-29T12:20:17;98252.95;;;7.47;57.03
56825;BME280;42705;50.326;18.772;2022-12-29T12:31:51;98210.63;;;7.49;56.96
56825;BME280;42705;50.326;18.772;2022-12-29T12:54:41;98191.29;;;7.78;56.55
56825;BME280;42705;50.326;18.772;2022-12-29T13:22:58;98192.98;;;8.51;55.81
56825;BME280;42705;50.326;18.772;2022-12-29T13:28:49;98191.92;;;8.48;55.48
56825;BME280;42705;50.326;18.772;2022-12-29T13:34:44;98184.74;;;8.40;55.58
56825;BME280;42705;50.326;18.772;2022-12-29T13:40:17;98191.45;;;8.33;55.61
56825;BME280;42705;50.326;18.772;2022-12-29T13:45:42;98186.16;;;8.29;55.82
56825;BME280;42705;50.326;18.772;2022-12-29T13:51:05;98194.80;;;8.30;56.06
56825;BME280;42705;50.326;18.772;2022-12-29T14:02:24;98192.02;;;8.21;56.12
56825;BME280;42705;50.326;18.772;2022-12-29T14:07:56;98189.59;;;8.14;56.45
56825;BME280;42705;50.326;18.772;2022-12-29T14:13:15;98189.72;;;8.13;56.69
56825;BME280;42705;50.326;18.772;2022-12-29T14:18:42;98195.95;;;8.06;56.83
56825;BME280;42705;50.326;18.772;2022-12-29T14:29:59;98207.55;;;8.07;57.08
56825;BME280;42705;50.326;18.772;2022-12-29T14:35:44;98188.13;;;8.06;56.91
56825;BME280;42705;50.326;18.772;2022-12-29T14:47:00;98196.51;;;7.78;57.41
56825;BME280;42705;50.326;18.772;2022-12-29T14:52:25;98205.73;;;7.61;57.67
56825;BME280;42705;50.326;18.772;2022-12-29T14:57:49;98195.95;;;7.48;58.05
56825;BME280;42705;50.326;18.772;2022-12-29T15:03:16;98199.78;;;7.38;58.41
56825;BME280;42705;50.326;18.772;2022-12-29T15:09:00;98205.05;;;7.32;58.67
56825;BME280;42705;50.326;18.772;2022-12-29T15:14:37;98210.61;;;7.28;58.84
56825;BME280;42705;50.326;18.772;2022-12-29T15:20:14;98205.67;;;7.19;59.12
56825;BME280;42705;50.326;18.772;2022-12-29T15:31:24;98204.76;;;7.14;59.54
56825;BME280;42705;50.326;18.772;2022-12-29T15:36:49;98198.70;;;7.14;59.59
56825;BME280;42705;50.326;18.772;2022-12-29T15:48:21;98212.47;;;7.10;59.76
56825;BME280;42705;50.326;18.772;2022-12-29T15:53:48;98213.53;;;7.07;59.91
56825;BME280;42705;50.326;18.772;2022-12-29T15:59:29;98223.74;;;7.05;59.99
56825;BME280;42705;50.326;18.772;2022-12-29T16:04:52;98217.48;;;7.02;60.09
56825;BME280;42705;50.326;18.772;2022-12-29T16:10:52;98214.14;;;7.00;60.15
56825;BME280;42705;50.326;18.772;2022-12-29T16:16:13;98215.23;;;7.03;60.25
56825;BME280;42705;50.326;18.772;2022-12-29T16:21:41;98220.15;;;7.12;60.24
56825;BME280;42705;50.326;18.772;2022-12-29T16:27:09;98221.80;;;7.13;60.09
56825;BME280;42705;50.326;18.772;2022-12-29T16:32:32;98221.14;;;7.05;59.86
56825;BME280;42705;50.326;18.772;2022-12-29T16:38:15;98217.95;;;6.95;60.02
56825;BME280;42705;50.326;18.772;2022-12-29T16:43:37;98227.45;;;6.85;60.12
56825;BME280;42705;50.326;18.772;2022-12-29T16:49:00;98207.70;;;6.77;60.36
56825;BME280;42705;50.326;18.772;2022-12-29T16:54:33;98202.75;;;6.74;60.50
56825;BME280;42705;50.326;18.772;2022-12-29T17:00:00;98206.20;;;6.69;60.55
56825;BME280;42705;50.326;18.772;2022-12-29T17:05:21;98203.48;;;6.64;60.55
56825;BME280;42705;50.326;18.772;2022-12-29T17:10:43;98196.38;;;6.66;60.49
56825;BME280;42705;50.326;18.772;2022-12-29T17:16:22;98216.92;;;6.75;60.50
56825;BME280;42705;50.326;18.772;2022-12-29T17:21:43;98222.03;;;6.77;60.34
56825;BME280;42705;50.326;18.772;2022-12-29T17:27:07;98216.83;;;6.77;60.22
56825;BME280;42705;50.326;18.772;2022-12-29T17:32:28;98225.34;;;6.73;60.07
56825;BME280;42705;50.326;18.772;2022-12-29T17:37:50;98222.52;;;6.65;60.12
56825;BME280;42705;50.326;18.772;2022-12-29T17:43:14;98234.11;;;6.55;60.17
56825;BME280;42705;50.326;18.772;2022-12-29T17:48:36;98223.02;;;6.47;60.30
56825;BME280;42705;50.326;18.772;2022-12-29T17:53:57;98220.41;;;6.42;60.39
56825;BME280;42705;50.326;18.772;2022-12-29T17:59:19;98222.66;;;6.35;60.41
56825;BME280;42705;50.326;18.772;2022-12-29T18:04:40;98227.53;;;6.28;60.53
56825;BME280;42705;50.326;18.772;2022-12-29T18:10:02;98225.16;;;6.25;60.58
56825;BME280;42705;50.326;18.772;2022-12-29T18:15:25;98249.27;;;6.21;60.61
56825;BME280;42705;50.326;18.772;2022-12-29T18:20:49;98249.49;;;6.24;60.74
56825;BME280;42705;50.326;18.772;2022-12-29T18:26:21;98241.94;;;6.27;60.80
56825;BME280;42705;50.326;18.772;2022-12-29T18:31:43;98245.13;;;6.25;60.77
56825;BME280;42705;50.326;18.772;2022-12-29T18:37:05;98246.77;;;6.20;60.81
56825;BME280;42705;50.326;18.772;2022-12-29T18:42:26;98253.30;;;6.14;60.85
56825;BME280;42705;50.326;18.772;2022-12-29T18:47:47;98228.21;;;6.07;60.98
56825;BME280;42705;50.326;18.772;2022-12-29T18:53:20;98227.15;;;6.04;61.07
56825;BME280;42705;50.326;18.772;2022-12-29T18:58:46;98252.16;;;6.00;61.13
56825;BME280;42705;50.326;18.772;2022-12-29T19:04:11;98242.23;;;5.93;61.27
56825;BME280;42705;50.326;18.772;2022-12-29T19:09:34;98242.00;;;5.91;61.46
56825;BME280;42705;50.326;18.772;2022-12-29T19:14:55;98239.76;;;5.92;61.60
56825;BME280;42705;50.326;18.772;2022-12-29T19:25:58;98254.72;;;5.83;61.80
56825;BME280;42705;50.326;18.772;2022-12-29T19:31:19;98261.94;;;5.79;61.83
56825;BME280;42705;50.326;18.772;2022-12-29T19:36:41;98266.17;;;5.74;61.84
56825;BME280;42705;50.326;18.772;2022-12-29T19:42:03;98260.03;;;5.70;62.01
56825;BME280;42705;50.326;18.772;2022-12-29T19:47:26;98246.09;;;5.71;62.26
56825;BME280;42705;50.326;18.772;2022-12-29T19:52:47;98247.50;;;5.69;62.41
56825;BME280;42705;50.326;18.772;2022-12-29T19:58:09;98241.81;;;5.64;62.42
56825;BME280;42705;50.326;18.772;2022-12-29T20:03:32;98241.69;;;5.60;62.50
56825;BME280;42705;50.326;18.772;2022-12-29T20:08:53;98250.06;;;5.63;62.48
56825;BME280;42705;50.326;18.772;2022-12-29T20:14:15;98249.84;;;5.67;62.52
56825;BME280;42705;50.326;18.772;2022-12-29T20:19:37;98239.80;;;5.68;62.45
56825;BME280;42705;50.326;18.772;2022-12-29T20:24:58;98241.23;;;5.66;62.38
56825;BME280;42705;50.326;18.772;2022-12-29T20:30:21;98238.16;;;5.72;62.54
56825;BME280;42705;50.326;18.772;2022-12-29T20:35:44;98257.09;;;5.80;62.52
56825;BME280;42705;50.326;18.772;2022-12-29T20:41:06;98228.60;;;5.78;62.32
56825;BME280;42705;50.326;18.772;2022-12-29T20:46:27;98214.98;;;5.63;62.31
56825;BME280;42705;50.326;18.772;2022-12-29T20:51:52;98234.32;;;5.48;62.44
56825;BME280;42705;50.326;18.772;2022-12-29T20:57:14;98248.09;;;5.37;62.58
56825;BME280;42705;50.326;18.772;2022-12-29T21:02:35;98250.23;;;5.38;62.74
56825;BME280;42705;50.326;18.772;2022-12-29T21:07:56;98240.10;;;5.46;62.82
56825;BME280;42705;50.326;18.772;2022-12-29T21:13:19;98243.64;;;5.45;62.76
56825;BME280;42705;50.326;18.772;2022-12-29T21:18:41;98244.09;;;5.39;62.85
56825;BME280;42705;50.326;18.772;2022-12-29T21:24:03;98240.30;;;5.37;62.88
56825;BME280;42705;50.326;18.772;2022-12-29T21:29:26;98242.31;;;5.33;62.89
56825;BME280;42705;50.326;18.772;2022-12-29T21:34:47;98250.78;;;5.30;62.89
56825;BME280;42705;50.326;18.772;2022-12-29T21:40:09;98247.79;;;5.23;62.89
56825;BME280;42705;50.326;18.772;2022-12-29T21:45:32;98256.08;;;5.28;63.00
56825;BME280;42705;50.326;18.772;2022-12-29T21:50:56;98260.98;;;5.39;63.02
56825;BME280;42705;50.326;18.772;2022-12-29T21:56:36;98269.81;;;5.36;62.92
56825;BME280;42705;50.326;18.772;2022-12-29T22:01:58;98273.90;;;5.27;62.90
56825;BME280;42705;50.326;18.772;2022-12-29T22:07:38;98286.03;;;5.21;62.98
56825;BME280;42705;50.326;18.772;2022-12-29T22:13:18;98284.20;;;5.10;63.01
56825;BME280;42705;50.326;18.772;2022-12-29T22:18:39;98279.58;;;5.08;63.15
56825;BME280;42705;50.326;18.772;2022-12-29T22:24:00;98282.55;;;5.09;63.32
56825;BME280;42705;50.326;18.772;2022-12-29T22:29:21;98283.84;;;5.09;63.39
56825;BME280;42705;50.326;18.772;2022-12-29T22:34:42;98287.86;;;5.07;63.45
56825;BME280;42705;50.326;18.772;2022-12-29T22:40:05;98295.75;;;5.06;63.51
56825;BME280;42705;50.326;18.772;2022-12-29T22:45:27;98298.92;;;5.04;63.50
56825;BME280;42705;50.326;18.772;2022-12-29T22:50:48;98280.30;;;5.04;63.53
56825;BME280;42705;50.326;18.772;2022-12-29T22:56:11;98281.91;;;5.00;63.64
56825;BME280;42705;50.326;18.772;2022-12-29T23:01:33;98278.09;;;4.92;63.82
56825;BME280;42705;50.326;18.772;2022-12-29T23:06:54;98278.31;;;4.89;63.95
56825;BME280;42705;50.326;18.772;2022-12-29T23:12:15;98259.64;;;4.84;64.05
56825;BME280;42705;50.326;18.772;2022-12-29T23:17:36;98261.75;;;4.85;64.21
56825;BME280;42705;50.326;18.772;2022-12-29T23:22:57;98270.25;;;4.87;64.29
56825;BME280;42705;50.326;18.772;2022-12-29T23:28:18;98273.70;;;4.87;64.35
56825;BME280;42705;50.326;18.772;2022-12-29T23:33:40;98256.91;;;4.80;64.40
56825;BME280;42705;50.326;18.772;2022-12-29T23:39:01;98256.91;;;4.80;64.40
56825;BME280;42705;50.326;18.772;2022-12-29T23:44:22;98259.78;;;4.88;64.38
56825;BME280;42705;50.326;18.772;2022-12-29T23:49:44;98257.68;;;4.93;64.43
56825;BME280;42705;50.326;18.772;2022-12-29T23:55:05;98250.73;;;4.94;64.42
